sensor_id;sensor_type;location;lat;lon;timestamp;P1;durP1;ratioP1;P2;durP2;ratioP2
7158;SDS011;63175;52.374;13.132;2022-12-18T00:00:57;38.35;;;15.93;;
7158;SDS011;63175;52.374;13.132;2022-12-18T00:03:24;33.08;;;13.68;;
7158;SDS011;63175;52.374;13.132;2022-12-18T00:05:52;40.50;;;15.27;;
7158;SDS011;63175;52.374;13.132;2022-12-18T00:08:19;38.72;;;15.40;;
7158;SDS011;63175;52.374;13.132;2022-12-18T00:10:47;38.97;;;16.70;;
7158;SDS011;63175;52.374;13.132;2022-12-18T00:13:14;42.55;;;17.48;;
7158;SDS011;63175;52.374;13.132;2022-12-18T00:15:41;37.03;;;15.18;;
7158;SDS011;63175;52.374;13.132;2022-12-18T00:18:08;34.30;;;14.18;;
7158;SDS011;63175;52.374;13.132;2022-12-18T00:20:35;37.45;;;15.40;;
7158;SDS011;63175;52.374;13.132;2022-12-18T00:23:03;30.25;;;12.55;;
7158;SDS011;63175;52.374;13.132;2022-12-18T00:25:32;36.53;;;14.52;;
7158;SDS011;63175;52.374;13.132;2022-12-18T00:28:00;35.08;;;14.35;;
7158;SDS011;63175;52.374;13.132;2022-12-18T00:30:27;34.38;;;15.45;;
7158;SDS011;63175;52.374;13.132;2022-12-18T00:32:54;40.42;;;15.73;;
7158;SDS011;63175;52.374;13.132;2022-12-18T00:35:21;33.67;;;15.38;;
7158;SDS011;63175;52.374;13.132;2022-12-18T00:37:48;38.35;;;15.82;;
7158;SDS011;63175;52.374;13.132;2022-12-18T00:40:14;34.60;;;13.85;;
7158;SDS011;63175;52.374;13.132;2022-12-18T00:42:41;33.55;;;14.35;;
7158;SDS011;63175;52.374;13.132;2022-12-18T00:45:30;38.75;;;15.38;;
7158;SDS011;63175;52.374;13.132;2022-12-18T00:47:57;36.15;;;14.20;;
7158;SDS011;63175;52.374;13.132;2022-12-18T00:50:24;34.13;;;14.02;;
7158;SDS011;63175;52.374;13.132;2022-12-18T00:52:51;34.75;;;14.23;;
7158;SDS011;63175;52.374;13.132;2022-12-18T00:55:18;38.28;;;14.32;;
7158;SDS011;63175;52.374;13.132;2022-12-18T00:57:45;34.65;;;13.60;;
7158;SDS011;63175;52.374;13.132;2022-12-18T01:00:13;34.80;;;13.73;;
7158;SDS011;63175;52.374;13.132;2022-12-18T01:02:42;39.92;;;15.25;;
7158;SDS011;63175;52.374;13.132;2022-12-18T01:05:09;36.58;;;14.73;;
7158;SDS011;63175;52.374;13.132;2022-12-18T01:07:38;31.85;;;14.02;;
7158;SDS011;63175;52.374;13.132;2022-12-18T01:10:05;35.22;;;15.02;;
7158;SDS011;63175;52.374;13.132;2022-12-18T01:12:34;38.45;;;15.52;;
7158;SDS011;63175;52.374;13.132;2022-12-18T01:15:01;32.05;;;14.35;;
7158;SDS011;63175;52.374;13.132;2022-12-18T01:17:28;29.05;;;12.68;;
7158;SDS011;63175;52.374;13.132;2022-12-18T01:19:56;42.00;;;14.55;;
7158;SDS011;63175;52.374;13.132;2022-12-18T01:22:23;30.85;;;14.52;;
7158;SDS011;63175;52.374;13.132;2022-12-18T01:24:50;32.63;;;14.77;;
7158;SDS011;63175;52.374;13.132;2022-12-18T01:27:17;29.63;;;13.88;;
7158;SDS011;63175;52.374;13.132;2022-12-18T01:29:44;37.13;;;14.30;;
7158;SDS011;63175;52.374;13.132;2022-12-18T01:32:11;39.47;;;15.00;;
7158;SDS011;63175;52.374;13.132;2022-12-18T01:34:38;33.75;;;13.82;;
7158;SDS011;63175;52.374;13.132;2022-12-18T01:37:06;31.15;;;13.73;;
7158;SDS011;63175;52.374;13.132;2022-12-18T01:39:33;30.83;;;12.85;;
7158;SDS011;63175;52.374;13.132;2022-12-18T01:42:00;34.58;;;12.95;;
7158;SDS011;63175;52.374;13.132;2022-12-18T01:44:55;30.40;;;13.88;;
7158;SDS011;63175;52.374;13.132;2022-12-18T01:47:25;31.52;;;12.77;;
7158;SDS011;63175;52.374;13.132;2022-12-18T01:49:55;29.20;;;14.38;;
7158;SDS011;63175;52.374;13.132;2022-12-18T01:52:25;34.97;;;14.52;;
7158;SDS011;63175;52.374;13.132;2022-12-18T01:54:54;36.80;;;15.50;;
7158;SDS011;63175;52.374;13.132;2022-12-18T01:57:22;37.38;;;15.35;;
7158;SDS011;63175;52.374;13.132;2022-12-18T01:59:50;35.70;;;14.50;;
7158;SDS011;63175;52.374;13.132;2022-12-18T02:02:20;36.38;;;14.65;;
7158;SDS011;63175;52.374;13.132;2022-12-18T02:04:47;33.53;;;14.77;;
7158;SDS011;63175;52.374;13.132;2022-12-18T02:07:17;37.47;;;15.05;;
7158;SDS011;63175;52.374;13.132;2022-12-18T02:09:52;32.67;;;13.70;;
7158;SDS011;63175;52.374;13.132;2022-12-18T02:12:25;35.22;;;16.00;;
7158;SDS011;63175;52.374;13.132;2022-12-18T02:14:58;39.63;;;15.82;;
7158;SDS011;63175;52.374;13.132;2022-12-18T02:17:33;37.92;;;16.65;;
7158;SDS011;63175;52.374;13.132;2022-12-18T02:20:06;39.75;;;15.57;;
7158;SDS011;63175;52.374;13.132;2022-12-18T02:22:42;35.15;;;15.32;;
7158;SDS011;63175;52.374;13.132;2022-12-18T02:25:24;34.55;;;14.65;;
7158;SDS011;63175;52.374;13.132;2022-12-18T02:28:04;34.00;;;14.18;;
7158;SDS011;63175;52.374;13.132;2022-12-18T02:30:35;34.38;;;14.82;;
7158;SDS011;63175;52.374;13.132;2022-12-18T02:33:04;33.80;;;14.95;;
7158;SDS011;63175;52.374;13.132;2022-12-18T02:35:33;26.02;;;12.48;;
7158;SDS011;63175;52.374;13.132;2022-12-18T02:38:01;30.85;;;13.15;;
7158;SDS011;63175;52.374;13.132;2022-12-18T02:40:29;35.17;;;14.82;;
7158;SDS011;63175;52.374;13.132;2022-12-18T02:43:02;38.28;;;16.80;;
7158;SDS011;63175;52.374;13.132;2022-12-18T02:45:33;38.65;;;15.10;;
7158;SDS011;63175;52.374;13.132;2022-12-18T02:47:59;39.95;;;14.77;;
7158;SDS011;63175;52.374;13.132;2022-12-18T02:50:28;32.83;;;13.30;;
7158;SDS011;63175;52.374;13.132;2022-12-18T02:53:03;30.38;;;14.60;;
7158;SDS011;63175;52.374;13.132;2022-12-18T02:55:39;31.63;;;15.25;;
7158;SDS011;63175;52.374;13.132;2022-12-18T02:58:19;35.85;;;16.60;;
7158;SDS011;63175;52.374;13.132;2022-12-18T03:00:53;32.28;;;15.02;;
7158;SDS011;63175;52.374;13.132;2022-12-18T03:03:28;35.67;;;16.02;;
7158;SDS011;63175;52.374;13.132;2022-12-18T03:06:01;33.53;;;14.60;;
7158;SDS011;63175;52.374;13.132;2022-12-18T03:08:33;32.45;;;14.40;;
7158;SDS011;63175;52.374;13.132;2022-12-18T03:11:05;36.78;;;16.50;;
7158;SDS011;63175;52.374;13.132;2022-12-18T03:13:36;34.13;;;15.63;;
7158;SDS011;63175;52.374;13.132;2022-12-18T03:16:06;28.60;;;14.30;;
7158;SDS011;63175;52.374;13.132;2022-12-18T03:18:37;33.42;;;15.65;;
7158;SDS011;63175;52.374;13.132;2022-12-18T03:21:08;38.60;;;15.90;;
7158;SDS011;63175;52.374;13.132;2022-12-18T03:23:38;41.78;;;16.13;;
7158;SDS011;63175;52.374;13.132;2022-12-18T03:26:10;30.73;;;14.40;;
7158;SDS011;63175;52.374;13.132;2022-12-18T03:28:44;31.15;;;13.70;;
7158;SDS011;63175;52.374;13.132;2022-12-18T03:31:16;31.73;;;14.02;;
7158;SDS011;63175;52.374;13.132;2022-12-18T03:33:45;40.25;;;16.45;;
7158;SDS011;63175;52.374;13.132;2022-12-18T03:36:16;39.83;;;15.85;;
7158;SDS011;63175;52.374;13.132;2022-12-18T03:38:44;33.42;;;16.17;;
7158;SDS011;63175;52.374;13.132;2022-12-18T03:41:12;39.75;;;16.88;;
7158;SDS011;63175;52.374;13.132;2022-12-18T03:43:47;37.28;;;15.98;;
7158;SDS011;63175;52.374;13.132;2022-12-18T03:46:19;39.67;;;15.13;;
7158;SDS011;63175;52.374;13.132;2022-12-18T03:48:55;40.45;;;15.85;;
7158;SDS011;63175;52.374;13.132;2022-12-18T03:51:27;34.40;;;16.00;;
7158;SDS011;63175;52.374;13.132;2022-12-18T03:53:59;33.13;;;14.77;;
7158;SDS011;63175;52.374;13.132;2022-12-18T03:56:30;28.05;;;13.32;;
7158;SDS011;63175;52.374;13.132;2022-12-18T03:59:03;31.35;;;14.23;;
7158;SDS011;63175;52.374;13.132;2022-12-18T04:01:32;32.85;;;14.20;;
7158;SDS011;63175;52.374;13.132;2022-12-18T04:04:01;28.92;;;13.95;;
7158;SDS011;63175;52.374;13.132;2022-12-18T04:06:30;31.50;;;14.50;;
7158;SDS011;63175;52.374;13.132;2022-12-18T04:09:00;38.30;;;14.85;;
7158;SDS011;63175;52.374;13.132;2022-12-18T04:11:27;30.83;;;13.80;;
7158;SDS011;63175;52.374;13.132;2022-12-18T04:13:55;31.40;;;13.65;;
7158;SDS011;63175;52.374;13.132;2022-12-18T04:16:24;30.45;;;13.85;;
7158;SDS011;63175;52.374;13.132;2022-12-18T04:18:51;33.80;;;14.10;;
7158;SDS011;63175;52.374;13.132;2022-12-18T04:21:18;27.67;;;13.25;;
7158;SDS011;63175;52.374;13.132;2022-12-18T04:23:45;36.22;;;14.93;;
7158;SDS011;63175;52.374;13.132;2022-12-18T04:26:12;33.95;;;14.70;;
7158;SDS011;63175;52.374;13.132;2022-12-18T04:28:39;28.88;;;12.45;;
7158;SDS011;63175;52.374;13.132;2022-12-18T04:31:06;35.20;;;12.05;;
7158;SDS011;63175;52.374;13.132;2022-12-18T04:33:34;26.30;;;12.77;;
7158;SDS011;63175;52.374;13.132;2022-12-18T04:36:01;25.23;;;13.43;;
7158;SDS011;63175;52.374;13.132;2022-12-18T04:38:28;25.75;;;12.25;;
7158;SDS011;63175;52.374;13.132;2022-12-18T04:40:55;27.85;;;12.93;;
7158;SDS011;63175;52.374;13.132;2022-12-18T04:43:21;31.33;;;13.07;;
7158;SDS011;63175;52.374;13.132;2022-12-18T04:45:48;26.67;;;11.07;;
7158;SDS011;63175;52.374;13.132;2022-12-18T04:48:15;28.35;;;12.93;;
7158;SDS011;63175;52.374;13.132;2022-12-18T04:50:43;28.73;;;14.15;;
7158;SDS011;63175;52.374;13.132;2022-12-18T04:53:10;29.58;;;14.02;;
7158;SDS011;63175;52.374;13.132;2022-12-18T04:55:37;28.38;;;12.25;;
7158;SDS011;63175;52.374;13.132;2022-12-18T04:58:04;21.98;;;11.98;;
7158;SDS011;63175;52.374;13.132;2022-12-18T05:00:30;24.40;;;13.07;;
7158;SDS011;63175;52.374;13.132;2022-12-18T05:02:57;23.92;;;11.68;;
7158;SDS011;63175;52.374;13.132;2022-12-18T05:05:26;22.42;;;11.60;;
7158;SDS011;63175;52.374;13.132;2022-12-18T05:07:54;27.38;;;13.05;;
7158;SDS011;63175;52.374;13.132;2022-12-18T05:10:21;24.20;;;12.35;;
7158;SDS011;63175;52.374;13.132;2022-12-18T05:12:48;27.02;;;14.00;;
7158;SDS011;63175;52.374;13.132;2022-12-18T05:15:26;25.05;;;13.23;;
7158;SDS011;63175;52.374;13.132;2022-12-18T05:17:54;33.80;;;14.57;;
7158;SDS011;63175;52.374;13.132;2022-12-18T05:20:21;29.33;;;12.55;;
7158;SDS011;63175;52.374;13.132;2022-12-18T05:22:48;30.10;;;12.50;;
7158;SDS011;63175;52.374;13.132;2022-12-18T05:25:17;27.55;;;12.50;;
7158;SDS011;63175;52.374;13.132;2022-12-18T05:27:44;25.60;;;12.00;;
7158;SDS011;63175;52.374;13.132;2022-12-18T05:30:11;29.33;;;12.40;;
7158;SDS011;63175;52.374;13.132;2022-12-18T05:32:39;26.58;;;12.80;;
7158;SDS011;63175;52.374;13.132;2022-12-18T05:35:07;31.58;;;13.30;;
7158;SDS011;63175;52.374;13.132;2022-12-18T05:37:36;30.60;;;13.68;;
7158;SDS011;63175;52.374;13.132;2022-12-18T05:40:03;29.73;;;14.02;;
7158;SDS011;63175;52.374;13.132;2022-12-18T05:42:32;32.03;;;13.15;;
7158;SDS011;63175;52.374;13.132;2022-12-18T05:44:59;28.75;;;13.55;;
7158;SDS011;63175;52.374;13.132;2022-12-18T05:47:26;28.40;;;12.95;;
7158;SDS011;63175;52.374;13.132;2022-12-18T05:49:53;24.85;;;11.50;;
7158;SDS011;63175;52.374;13.132;2022-12-18T05:52:20;25.80;;;11.85;;
7158;SDS011;63175;52.374;13.132;2022-12-18T05:54:47;30.20;;;11.75;;
7158;SDS011;63175;52.374;13.132;2022-12-18T05:57:14;25.45;;;13.68;;
7158;SDS011;63175;52.374;13.132;2022-12-18T05:59:42;28.33;;;12.88;;
7158;SDS011;63175;52.374;13.132;2022-12-18T06:02:09;23.30;;;12.35;;
7158;SDS011;63175;52.374;13.132;2022-12-18T06:04:36;27.83;;;11.70;;
7158;SDS011;63175;52.374;13.132;2022-12-18T06:07:03;27.95;;;13.15;;
7158;SDS011;63175;52.374;13.132;2022-12-18T06:09:29;25.58;;;13.45;;
7158;SDS011;63175;52.374;13.132;2022-12-18T06:11:57;30.83;;;13.63;;
7158;SDS011;63175;52.374;13.132;2022-12-18T06:14:24;32.85;;;13.82;;
7158;SDS011;63175;52.374;13.132;2022-12-18T06:16:52;26.20;;;12.68;;
7158;SDS011;63175;52.374;13.132;2022-12-18T06:19:19;31.88;;;13.50;;
7158;SDS011;63175;52.374;13.132;2022-12-18T06:21:45;26.67;;;13.00;;
7158;SDS011;63175;52.374;13.132;2022-12-18T06:24:14;28.67;;;14.88;;
7158;SDS011;63175;52.374;13.132;2022-12-18T06:26:41;27.73;;;13.40;;
7158;SDS011;63175;52.374;13.132;2022-12-18T06:29:08;26.73;;;13.55;;
7158;SDS011;63175;52.374;13.132;2022-12-18T06:31:34;31.05;;;15.50;;
7158;SDS011;63175;52.374;13.132;2022-12-18T06:34:03;30.67;;;14.27;;
7158;SDS011;63175;52.374;13.132;2022-12-18T06:36:30;34.35;;;14.02;;
7158;SDS011;63175;52.374;13.132;2022-12-18T06:38:58;28.13;;;13.75;;
7158;SDS011;63175;52.374;13.132;2022-12-18T06:41:24;35.60;;;15.30;;
7158;SDS011;63175;52.374;13.132;2022-12-18T06:43:51;27.00;;;13.30;;
7158;SDS011;63175;52.374;13.132;2022-12-18T06:46:18;27.48;;;13.23;;
7158;SDS011;63175;52.374;13.132;2022-12-18T06:48:49;31.42;;;12.93;;
7158;SDS011;63175;52.374;13.132;2022-12-18T06:51:18;32.70;;;14.00;;
7158;SDS011;63175;52.374;13.132;2022-12-18T06:53:46;28.98;;;14.35;;
7158;SDS011;63175;52.374;13.132;2022-12-18T06:56:13;28.60;;;13.05;;
7158;SDS011;63175;52.374;13.132;2022-12-18T06:58:40;29.50;;;13.88;;
7158;SDS011;63175;52.374;13.132;2022-12-18T07:01:08;31.10;;;15.13;;
7158;SDS011;63175;52.374;13.132;2022-12-18T07:03:36;33.17;;;13.75;;
7158;SDS011;63175;52.374;13.132;2022-12-18T07:06:03;38.35;;;16.10;;
7158;SDS011;63175;52.374;13.132;2022-12-18T07:08:33;29.65;;;12.43;;
7158;SDS011;63175;52.374;13.132;2022-12-18T07:11:02;34.65;;;16.25;;
7158;SDS011;63175;52.374;13.132;2022-12-18T07:13:30;31.38;;;14.43;;
7158;SDS011;63175;52.374;13.132;2022-12-18T07:16:02;37.42;;;15.52;;
7158;SDS011;63175;52.374;13.132;2022-12-18T07:18:30;31.75;;;14.10;;
7158;SDS011;63175;52.374;13.132;2022-12-18T07:20:57;41.65;;;17.13;;
7158;SDS011;63175;52.374;13.132;2022-12-18T07:23:28;32.55;;;15.48;;
7158;SDS011;63175;52.374;13.132;2022-12-18T07:25:59;39.63;;;15.65;;
7158;SDS011;63175;52.374;13.132;2022-12-18T07:28:27;29.65;;;14.85;;
7158;SDS011;63175;52.374;13.132;2022-12-18T07:30:54;37.65;;;16.65;;
7158;SDS011;63175;52.374;13.132;2022-12-18T07:33:20;35.13;;;16.52;;
7158;SDS011;63175;52.374;13.132;2022-12-18T07:35:47;47.03;;;18.65;;
7158;SDS011;63175;52.374;13.132;2022-12-18T07:38:14;43.10;;;18.05;;
7158;SDS011;63175;52.374;13.132;2022-12-18T07:40:41;41.30;;;17.80;;
7158;SDS011;63175;52.374;13.132;2022-12-18T07:43:12;36.70;;;17.58;;
7158;SDS011;63175;52.374;13.132;2022-12-18T07:45:41;33.83;;;17.40;;
7158;SDS011;63175;52.374;13.132;2022-12-18T07:48:09;33.08;;;14.65;;
7158;SDS011;63175;52.374;13.132;2022-12-18T07:50:36;39.00;;;17.67;;
7158;SDS011;63175;52.374;13.132;2022-12-18T07:53:03;33.60;;;15.65;;
7158;SDS011;63175;52.374;13.132;2022-12-18T07:55:30;37.45;;;15.50;;
7158;SDS011;63175;52.374;13.132;2022-12-18T07:58:00;30.63;;;15.88;;
7158;SDS011;63175;52.374;13.132;2022-12-18T08:00:29;27.83;;;13.93;;
7158;SDS011;63175;52.374;13.132;2022-12-18T08:02:56;31.88;;;14.45;;
7158;SDS011;63175;52.374;13.132;2022-12-18T08:05:23;27.42;;;15.13;;
7158;SDS011;63175;52.374;13.132;2022-12-18T08:07:50;31.13;;;14.10;;
7158;SDS011;63175;52.374;13.132;2022-12-18T08:10:17;27.92;;;15.00;;
7158;SDS011;63175;52.374;13.132;2022-12-18T08:12:44;30.52;;;15.15;;
7158;SDS011;63175;52.374;13.132;2022-12-18T08:15:11;31.27;;;14.77;;
7158;SDS011;63175;52.374;13.132;2022-12-18T08:17:39;28.48;;;13.63;;
7158;SDS011;63175;52.374;13.132;2022-12-18T08:20:06;24.05;;;12.68;;
7158;SDS011;63175;52.374;13.132;2022-12-18T08:22:34;27.27;;;12.73;;
7158;SDS011;63175;52.374;13.132;2022-12-18T08:25:01;27.25;;;14.77;;
7158;SDS011;63175;52.374;13.132;2022-12-18T08:27:28;29.35;;;13.52;;
7158;SDS011;63175;52.374;13.132;2022-12-18T08:29:55;30.05;;;13.70;;
7158;SDS011;63175;52.374;13.132;2022-12-18T08:32:22;22.52;;;13.15;;
7158;SDS011;63175;52.374;13.132;2022-12-18T08:34:51;27.30;;;13.10;;
7158;SDS011;63175;52.374;13.132;2022-12-18T08:37:18;29.13;;;12.20;;
7158;SDS011;63175;52.374;13.132;2022-12-18T08:39:45;26.70;;;14.40;;
7158;SDS011;63175;52.374;13.132;2022-12-18T08:42:12;25.77;;;12.60;;
7158;SDS011;63175;52.374;13.132;2022-12-18T08:44:58;29.38;;;13.43;;
7158;SDS011;63175;52.374;13.132;2022-12-18T08:47:25;34.08;;;13.57;;
7158;SDS011;63175;52.374;13.132;2022-12-18T08:49:53;28.80;;;14.15;;
7158;SDS011;63175;52.374;13.132;2022-12-18T08:52:20;30.70;;;14.32;;
7158;SDS011;63175;52.374;13.132;2022-12-18T08:54:47;27.10;;;13.82;;
7158;SDS011;63175;52.374;13.132;2022-12-18T08:57:14;32.08;;;15.40;;
7158;SDS011;63175;52.374;13.132;2022-12-18T08:59:41;29.10;;;15.05;;
7158;SDS011;63175;52.374;13.132;2022-12-18T09:02:08;26.98;;;13.40;;
7158;SDS011;63175;52.374;13.132;2022-12-18T09:04:35;35.33;;;15.10;;
7158;SDS011;63175;52.374;13.132;2022-12-18T09:07:04;31.25;;;14.80;;
7158;SDS011;63175;52.374;13.132;2022-12-18T09:09:31;30.60;;;14.20;;
7158;SDS011;63175;52.374;13.132;2022-12-18T09:11:57;33.13;;;16.02;;
7158;SDS011;63175;52.374;13.132;2022-12-18T09:14:24;31.60;;;16.10;;
7158;SDS011;63175;52.374;13.132;2022-12-18T09:16:51;34.28;;;15.70;;
7158;SDS011;63175;52.374;13.132;2022-12-18T09:19:18;35.67;;;16.38;;
7158;SDS011;63175;52.374;13.132;2022-12-18T09:21:44;35.90;;;15.63;;
7158;SDS011;63175;52.374;13.132;2022-12-18T09:24:13;29.05;;;14.68;;
7158;SDS011;63175;52.374;13.132;2022-12-18T09:26:40;35.60;;;15.60;;
7158;SDS011;63175;52.374;13.132;2022-12-18T09:29:07;38.30;;;17.92;;
7158;SDS011;63175;52.374;13.132;2022-12-18T09:31:34;35.75;;;17.40;;
7158;SDS011;63175;52.374;13.132;2022-12-18T09:34:02;41.55;;;16.90;;
7158;SDS011;63175;52.374;13.132;2022-12-18T09:36:29;41.13;;;18.38;;
7158;SDS011;63175;52.374;13.132;2022-12-18T09:38:56;35.17;;;16.83;;
7158;SDS011;63175;52.374;13.132;2022-12-18T09:44:13;40.10;;;16.73;;
7158;SDS011;63175;52.374;13.132;2022-12-18T09:46:49;34.10;;;16.42;;
7158;SDS011;63175;52.374;13.132;2022-12-18T09:49:21;40.58;;;17.85;;
7158;SDS011;63175;52.374;13.132;2022-12-18T09:51:52;40.75;;;17.95;;
7158;SDS011;63175;52.374;13.132;2022-12-18T09:54:22;39.47;;;17.55;;
7158;SDS011;63175;52.374;13.132;2022-12-18T09:56:53;41.00;;;16.98;;
7158;SDS011;63175;52.374;13.132;2022-12-18T09:59:22;34.33;;;16.95;;
7158;SDS011;63175;52.374;13.132;2022-12-18T10:01:51;26.83;;;15.40;;
7158;SDS011;63175;52.374;13.132;2022-12-18T10:04:18;41.70;;;17.45;;
7158;SDS011;63175;52.374;13.132;2022-12-18T10:06:46;40.25;;;20.25;;
7158;SDS011;63175;52.374;13.132;2022-12-18T10:09:23;43.47;;;21.15;;
7158;SDS011;63175;52.374;13.132;2022-12-18T10:11:58;35.65;;;17.73;;
7158;SDS011;63175;52.374;13.132;2022-12-18T10:14:34;34.88;;;17.20;;
7158;SDS011;63175;52.374;13.132;2022-12-18T10:17:11;37.75;;;17.90;;
7158;SDS011;63175;52.374;13.132;2022-12-18T10:19:44;41.67;;;19.40;;
7158;SDS011;63175;52.374;13.132;2022-12-18T10:22:21;40.20;;;18.02;;
7158;SDS011;63175;52.374;13.132;2022-12-18T10:24:59;36.35;;;16.85;;
7158;SDS011;63175;52.374;13.132;2022-12-18T10:27:32;37.85;;;18.48;;
7158;SDS011;63175;52.374;13.132;2022-12-18T10:29:59;40.53;;;18.65;;
7158;SDS011;63175;52.374;13.132;2022-12-18T10:32:30;51.97;;;20.60;;
7158;SDS011;63175;52.374;13.132;2022-12-18T10:34:57;45.88;;;18.58;;
7158;SDS011;63175;52.374;13.132;2022-12-18T10:37:25;34.97;;;16.98;;
7158;SDS011;63175;52.374;13.132;2022-12-18T10:40:07;43.42;;;22.05;;
7158;SDS011;63175;52.374;13.132;2022-12-18T10:42:38;43.33;;;20.85;;
7158;SDS011;63175;52.374;13.132;2022-12-18T10:45:09;43.80;;;18.90;;
7158;SDS011;63175;52.374;13.132;2022-12-18T10:47:41;39.80;;;19.55;;
7158;SDS011;63175;52.374;13.132;2022-12-18T10:50:15;44.08;;;20.25;;
7158;SDS011;63175;52.374;13.132;2022-12-18T10:52:53;39.78;;;19.08;;
7158;SDS011;63175;52.374;13.132;2022-12-18T10:55:21;40.40;;;18.88;;
7158;SDS011;63175;52.374;13.132;2022-12-18T10:57:49;36.60;;;16.98;;
7158;SDS011;63175;52.374;13.132;2022-12-18T11:00:21;37.05;;;16.75;;
7158;SDS011;63175;52.374;13.132;2022-12-18T11:02:50;33.88;;;15.15;;
7158;SDS011;63175;52.374;13.132;2022-12-18T11:05:25;34.80;;;16.42;;
7158;SDS011;63175;52.374;13.132;2022-12-18T11:07:54;31.25;;;15.25;;
7158;SDS011;63175;52.374;13.132;2022-12-18T11:10:22;29.38;;;14.20;;
7158;SDS011;63175;52.374;13.132;2022-12-18T11:12:53;36.55;;;15.20;;
7158;SDS011;63175;52.374;13.132;2022-12-18T11:15:21;33.45;;;14.30;;
7158;SDS011;63175;52.374;13.132;2022-12-18T11:17:52;23.67;;;11.57;;
7158;SDS011;63175;52.374;13.132;2022-12-18T11:20:21;26.13;;;13.35;;
7158;SDS011;63175;52.374;13.132;2022-12-18T11:22:54;32.28;;;13.85;;
7158;SDS011;63175;52.374;13.132;2022-12-18T11:25:23;26.80;;;14.05;;
7158;SDS011;63175;52.374;13.132;2022-12-18T11:27:51;25.23;;;12.63;;
7158;SDS011;63175;52.374;13.132;2022-12-18T11:30:24;26.88;;;12.75;;
7158;SDS011;63175;52.374;13.132;2022-12-18T11:32:53;30.95;;;13.32;;
7158;SDS011;63175;52.374;13.132;2022-12-18T11:35:23;26.20;;;14.25;;
7158;SDS011;63175;52.374;13.132;2022-12-18T11:38:01;22.55;;;12.32;;
7158;SDS011;63175;52.374;13.132;2022-12-18T11:40:33;29.20;;;12.82;;
7158;SDS011;63175;52.374;13.132;2022-12-18T11:43:03;29.02;;;12.40;;
7158;SDS011;63175;52.374;13.132;2022-12-18T11:45:39;27.88;;;13.68;;
7158;SDS011;63175;52.374;13.132;2022-12-18T11:48:13;24.23;;;12.50;;
7158;SDS011;63175;52.374;13.132;2022-12-18T11:50:44;25.65;;;11.82;;
7158;SDS011;63175;52.374;13.132;2022-12-18T11:53:15;16.02;;;9.95;;
7158;SDS011;63175;52.374;13.132;2022-12-18T11:55:46;18.73;;;10.27;;
7158;SDS011;63175;52.374;13.132;2022-12-18T11:58:19;19.15;;;11.00;;
7158;SDS011;63175;52.374;13.132;2022-12-18T12:00:58;25.40;;;12.77;;
7158;SDS011;63175;52.374;13.132;2022-12-18T12:03:46;21.10;;;11.65;;
7158;SDS011;63175;52.374;13.132;2022-12-18T12:06:45;19.05;;;12.25;;
7158;SDS011;63175;52.374;13.132;2022-12-18T12:09:20;24.63;;;12.98;;
7158;SDS011;63175;52.374;13.132;2022-12-18T12:11:57;26.08;;;12.65;;
7158;SDS011;63175;52.374;13.132;2022-12-18T12:14:35;22.60;;;10.67;;
7158;SDS011;63175;52.374;13.132;2022-12-18T12:17:11;24.10;;;12.23;;
7158;SDS011;63175;52.374;13.132;2022-12-18T12:19:48;25.20;;;12.32;;
7158;SDS011;63175;52.374;13.132;2022-12-18T12:22:24;20.55;;;11.85;;
7158;SDS011;63175;52.374;13.132;2022-12-18T12:25:00;20.95;;;11.98;;
7158;SDS011;63175;52.374;13.132;2022-12-18T12:27:40;21.45;;;12.00;;
7158;SDS011;63175;52.374;13.132;2022-12-18T12:30:18;18.73;;;11.40;;
7158;SDS011;63175;52.374;13.132;2022-12-18T12:32:55;20.42;;;11.52;;
7158;SDS011;63175;52.374;13.132;2022-12-18T12:35:44;28.70;;;15.30;;
7158;SDS011;63175;52.374;13.132;2022-12-18T12:41:40;19.87;;;12.10;;
7158;SDS011;63175;52.374;13.132;2022-12-18T12:44:27;23.98;;;13.10;;
7158;SDS011;63175;52.374;13.132;2022-12-18T12:46:57;20.23;;;12.05;;
7158;SDS011;63175;52.374;13.132;2022-12-18T12:49:31;28.70;;;13.40;;
7158;SDS011;63175;52.374;13.132;2022-12-18T12:52:03;21.63;;;11.88;;
7158;SDS011;63175;52.374;13.132;2022-12-18T12:54:32;24.35;;;13.45;;
7158;SDS011;63175;52.374;13.132;2022-12-18T12:57:01;24.05;;;12.98;;
7158;SDS011;63175;52.374;13.132;2022-12-18T12:59:36;23.52;;;12.75;;
7158;SDS011;63175;52.374;13.132;2022-12-18T13:02:14;23.23;;;12.20;;
7158;SDS011;63175;52.374;13.132;2022-12-18T13:04:48;26.20;;;14.20;;
7158;SDS011;63175;52.374;13.132;2022-12-18T13:07:20;28.50;;;14.80;;
7158;SDS011;63175;52.374;13.132;2022-12-18T13:10:23;26.52;;;14.65;;
7158;SDS011;63175;52.374;13.132;2022-12-18T13:12:59;23.17;;;13.23;;
7158;SDS011;63175;52.374;13.132;2022-12-18T13:15:29;24.85;;;13.65;;
7158;SDS011;63175;52.374;13.132;2022-12-18T13:20:50;25.25;;;15.10;;
7158;SDS011;63175;52.374;13.132;2022-12-18T13:23:33;22.63;;;13.68;;
7158;SDS011;63175;52.374;13.132;2022-12-18T13:28:58;25.98;;;16.00;;
7158;SDS011;63175;52.374;13.132;2022-12-18T13:34:35;24.63;;;14.27;;
7158;SDS011;63175;52.374;13.132;2022-12-18T13:43:28;27.33;;;15.23;;
7158;SDS011;63175;52.374;13.132;2022-12-18T13:46:04;28.67;;;15.75;;
7158;SDS011;63175;52.374;13.132;2022-12-18T13:48:54;23.20;;;14.80;;
7158;SDS011;63175;52.374;13.132;2022-12-18T13:51:23;25.98;;;13.15;;
7158;SDS011;63175;52.374;13.132;2022-12-18T13:53:53;26.23;;;14.33;;
7158;SDS011;63175;52.374;13.132;2022-12-18T13:56:24;24.48;;;14.07;;
7158;SDS011;63175;52.374;13.132;2022-12-18T13:59:11;24.42;;;13.50;;
7158;SDS011;63175;52.374;13.132;2022-12-18T14:01:43;23.00;;;12.77;;
7158;SDS011;63175;52.374;13.132;2022-12-18T14:04:11;23.83;;;12.40;;
7158;SDS011;63175;52.374;13.132;2022-12-18T14:06:43;20.40;;;11.60;;
7158;SDS011;63175;52.374;13.132;2022-12-18T14:09:14;19.43;;;12.70;;
7158;SDS011;63175;52.374;13.132;2022-12-18T14:11:45;20.73;;;11.97;;
7158;SDS011;63175;52.374;13.132;2022-12-18T14:14:14;22.30;;;13.27;;
7158;SDS011;63175;52.374;13.132;2022-12-18T14:16:42;22.20;;;12.80;;
7158;SDS011;63175;52.374;13.132;2022-12-18T14:19:10;24.83;;;12.35;;
7158;SDS011;63175;52.374;13.132;2022-12-18T14:21:40;17.45;;;10.20;;
7158;SDS011;63175;52.374;13.132;2022-12-18T14:24:14;15.97;;;9.90;;
7158;SDS011;63175;52.374;13.132;2022-12-18T14:26:42;18.88;;;12.30;;
7158;SDS011;63175;52.374;13.132;2022-12-18T14:29:23;15.95;;;10.95;;
7158;SDS011;63175;52.374;13.132;2022-12-18T14:34:35;14.57;;;9.70;;
7158;SDS011;63175;52.374;13.132;2022-12-18T14:37:02;14.23;;;9.63;;
7158;SDS011;63175;52.374;13.132;2022-12-18T14:39:31;17.73;;;11.23;;
7158;SDS011;63175;52.374;13.132;2022-12-18T14:41:57;18.92;;;10.23;;
7158;SDS011;63175;52.374;13.132;2022-12-18T14:44:24;17.55;;;9.60;;
7158;SDS011;63175;52.374;13.132;2022-12-18T14:46:51;16.15;;;10.38;;
7158;SDS011;63175;52.374;13.132;2022-12-18T14:49:19;19.33;;;11.90;;
7158;SDS011;63175;52.374;13.132;2022-12-18T14:51:51;21.95;;;11.73;;
7158;SDS011;63175;52.374;13.132;2022-12-18T14:54:20;21.05;;;12.20;;
7158;SDS011;63175;52.374;13.132;2022-12-18T14:56:50;21.13;;;12.50;;
7158;SDS011;63175;52.374;13.132;2022-12-18T14:59:21;23.95;;;13.05;;
7158;SDS011;63175;52.374;13.132;2022-12-18T15:01:53;26.58;;;13.63;;